sensor_id;sensor_type;location;lat;lon;timestamp;P1;durP1;ratioP1;P2;durP2;ratioP2
9461;SDS011;4769;42.660;23.262;2023-03-20T00:01:12;12.70;;;8.43;;
9461;SDS011;4769;42.660;23.262;2023-03-20T00:03:39;13.83;;;9.00;;
9461;SDS011;4769;42.660;23.262;2023-03-20T00:06:09;12.50;;;7.37;;
9461;SDS011;4769;42.660;23.262;2023-03-20T00:08:39;10.10;;;7.87;;
9461;SDS011;4769;42.660;23.262;2023-03-20T00:11:04;9.93;;;7.80;;
9461;SDS011;4769;42.660;23.262;2023-03-20T00:13:37;10.13;;;7.23;;
9461;SDS011;4769;42.660;23.262;2023-03-20T00:16:04;10.33;;;7.10;;
9461;SDS011;4769;42.660;23.262;2023-03-20T00:18:30;12.17;;;8.40;;
9461;SDS011;4769;42.660;23.262;2023-03-20T00:20:56;11.10;;;7.67;;
9461;SDS011;4769;42.660;23.262;2023-03-20T00:23:21;10.87;;;7.33;;
9461;SDS011;4769;42.660;23.262;2023-03-20T00:25:47;11.67;;;8.60;;
9461;SDS011;4769;42.660;23.262;2023-03-20T00:31:04;12.77;;;7.60;;
9461;SDS011;4769;42.660;23.262;2023-03-20T00:33:38;11.50;;;7.33;;
9461;SDS011;4769;42.660;23.262;2023-03-20T00:36:04;9.93;;;6.77;;
9461;SDS011;4769;42.660;23.262;2023-03-20T00:38:30;9.97;;;6.60;;
9461;SDS011;4769;42.660;23.262;2023-03-20T00:40:55;7.73;;;6.07;;
9461;SDS011;4769;42.660;23.262;2023-03-20T00:43:21;11.00;;;6.63;;
9461;SDS011;4769;42.660;23.262;2023-03-20T00:45:47;12.23;;;7.47;;
9461;SDS011;4769;42.660;23.262;2023-03-20T00:48:15;12.67;;;8.00;;
9461;SDS011;4769;42.660;23.262;2023-03-20T00:50:41;11.07;;;8.20;;
9461;SDS011;4769;42.660;23.262;2023-03-20T00:53:08;10.53;;;7.83;;
9461;SDS011;4769;42.660;23.262;2023-03-20T00:55:34;12.00;;;8.17;;
9461;SDS011;4769;42.660;23.262;2023-03-20T00:58:01;10.57;;;8.30;;
9461;SDS011;4769;42.660;23.262;2023-03-20T01:00:31;9.97;;;7.53;;
9461;SDS011;4769;42.660;23.262;2023-03-20T01:03:00;12.03;;;8.03;;
9461;SDS011;4769;42.660;23.262;2023-03-20T01:05:37;10.63;;;7.63;;
9461;SDS011;4769;42.660;23.262;2023-03-20T01:08:04;10.90;;;7.63;;
9461;SDS011;4769;42.660;23.262;2023-03-20T01:10:33;10.77;;;7.73;;
9461;SDS011;4769;42.660;23.262;2023-03-20T01:12:59;10.23;;;7.20;;
9461;SDS011;4769;42.660;23.262;2023-03-20T01:15:27;9.97;;;7.67;;
9461;SDS011;4769;42.660;23.262;2023-03-20T01:17:55;10.70;;;8.20;;
9461;SDS011;4769;42.660;23.262;2023-03-20T01:20:22;11.53;;;7.67;;
9461;SDS011;4769;42.660;23.262;2023-03-20T01:22:52;10.97;;;7.67;;
9461;SDS011;4769;42.660;23.262;2023-03-20T01:25:17;9.03;;;7.57;;
9461;SDS011;4769;42.660;23.262;2023-03-20T01:27:44;11.90;;;8.20;;
9461;SDS011;4769;42.660;23.262;2023-03-20T01:30:15;15.33;;;8.30;;
9461;SDS011;4769;42.660;23.262;2023-03-20T01:32:43;10.50;;;8.23;;
9461;SDS011;4769;42.660;23.262;2023-03-20T01:35:10;11.37;;;8.23;;
9461;SDS011;4769;42.660;23.262;2023-03-20T01:37:37;11.77;;;8.80;;
9461;SDS011;4769;42.660;23.262;2023-03-20T01:40:07;10.67;;;7.83;;
9461;SDS011;4769;42.660;23.262;2023-03-20T01:42:55;10.03;;;7.33;;
9461;SDS011;4769;42.660;23.262;2023-03-20T01:45:22;10.67;;;7.37;;
9461;SDS011;4769;42.660;23.262;2023-03-20T01:47:53;12.37;;;7.60;;
9461;SDS011;4769;42.660;23.262;2023-03-20T01:50:21;12.47;;;8.27;;
9461;SDS011;4769;42.660;23.262;2023-03-20T01:52:50;10.03;;;8.17;;
9461;SDS011;4769;42.660;23.262;2023-03-20T01:55:22;13.87;;;9.30;;
9461;SDS011;4769;42.660;23.262;2023-03-20T01:57:50;14.17;;;9.60;;
9461;SDS011;4769;42.660;23.262;2023-03-20T02:00:21;12.20;;;8.63;;
9461;SDS011;4769;42.660;23.262;2023-03-20T02:02:47;14.53;;;10.10;;
9461;SDS011;4769;42.660;23.262;2023-03-20T02:05:13;14.27;;;9.73;;
9461;SDS011;4769;42.660;23.262;2023-03-20T02:07:41;15.23;;;9.23;;
9461;SDS011;4769;42.660;23.262;2023-03-20T02:10:11;17.73;;;9.53;;
9461;SDS011;4769;42.660;23.262;2023-03-20T02:12:41;15.03;;;9.07;;
9461;SDS011;4769;42.660;23.262;2023-03-20T02:15:08;12.57;;;9.37;;
9461;SDS011;4769;42.660;23.262;2023-03-20T02:17:36;11.93;;;9.00;;
9461;SDS011;4769;42.660;23.262;2023-03-20T02:20:03;12.57;;;8.63;;
9461;SDS011;4769;42.660;23.262;2023-03-20T02:22:58;14.33;;;9.23;;
9461;SDS011;4769;42.660;23.262;2023-03-20T02:26:00;14.80;;;10.47;;
9461;SDS011;4769;42.660;23.262;2023-03-20T02:28:44;15.53;;;10.10;;
9461;SDS011;4769;42.660;23.262;2023-03-20T02:31:33;15.40;;;10.97;;
9461;SDS011;4769;42.660;23.262;2023-03-20T02:34:31;15.70;;;12.53;;
9461;SDS011;4769;42.660;23.262;2023-03-20T02:40:16;21.57;;;14.80;;
9461;SDS011;4769;42.660;23.262;2023-03-20T02:42:51;20.10;;;14.37;;
9461;SDS011;4769;42.660;23.262;2023-03-20T02:45:25;17.13;;;12.50;;
9461;SDS011;4769;42.660;23.262;2023-03-20T02:47:54;17.03;;;14.53;;
9461;SDS011;4769;42.660;23.262;2023-03-20T02:50:31;21.90;;;14.70;;
9461;SDS011;4769;42.660;23.262;2023-03-20T02:53:07;21.07;;;13.93;;
9461;SDS011;4769;42.660;23.262;2023-03-20T02:55:42;18.63;;;14.23;;
9461;SDS011;4769;42.660;23.262;2023-03-20T02:58:13;20.07;;;14.20;;
9461;SDS011;4769;42.660;23.262;2023-03-20T03:00:46;18.87;;;13.63;;
9461;SDS011;4769;42.660;23.262;2023-03-20T03:03:21;17.83;;;12.17;;
9461;SDS011;4769;42.660;23.262;2023-03-20T03:05:52;14.07;;;11.57;;
9461;SDS011;4769;42.660;23.262;2023-03-20T03:08:25;14.67;;;11.10;;
9461;SDS011;4769;42.660;23.262;2023-03-20T03:10:56;16.77;;;10.97;;
9461;SDS011;4769;42.660;23.262;2023-03-20T03:13:26;14.33;;;11.37;;
9461;SDS011;4769;42.660;23.262;2023-03-20T03:15:54;18.90;;;10.80;;
9461;SDS011;4769;42.660;23.262;2023-03-20T03:18:24;15.07;;;11.07;;
9461;SDS011;4769;42.660;23.262;2023-03-20T03:20:53;15.53;;;11.17;;
9461;SDS011;4769;42.660;23.262;2023-03-20T03:23:27;15.10;;;11.83;;
9461;SDS011;4769;42.660;23.262;2023-03-20T03:26:00;14.57;;;11.67;;
9461;SDS011;4769;42.660;23.262;2023-03-20T03:28:28;15.60;;;10.20;;
9461;SDS011;4769;42.660;23.262;2023-03-20T03:30:58;17.13;;;10.90;;
9461;SDS011;4769;42.660;23.262;2023-03-20T03:33:26;15.33;;;10.50;;
9461;SDS011;4769;42.660;23.262;2023-03-20T03:35:54;12.20;;;9.93;;
9461;SDS011;4769;42.660;23.262;2023-03-20T03:38:33;14.90;;;9.50;;
9461;SDS011;4769;42.660;23.262;2023-03-20T03:41:11;10.97;;;8.63;;
9461;SDS011;4769;42.660;23.262;2023-03-20T03:43:44;14.47;;;9.20;;
9461;SDS011;4769;42.660;23.262;2023-03-20T03:46:19;12.60;;;9.10;;
9461;SDS011;4769;42.660;23.262;2023-03-20T03:48:49;15.50;;;9.43;;
9461;SDS011;4769;42.660;23.262;2023-03-20T03:51:19;12.80;;;9.53;;
9461;SDS011;4769;42.660;23.262;2023-03-20T03:53:51;13.00;;;8.07;;
9461;SDS011;4769;42.660;23.262;2023-03-20T03:56:21;13.50;;;8.57;;
9461;SDS011;4769;42.660;23.262;2023-03-20T03:58:50;13.63;;;8.87;;
9461;SDS011;4769;42.660;23.262;2023-03-20T04:01:19;12.90;;;9.27;;
9461;SDS011;4769;42.660;23.262;2023-03-20T04:03:48;13.13;;;9.00;;
9461;SDS011;4769;42.660;23.262;2023-03-20T04:06:16;14.03;;;9.90;;
9461;SDS011;4769;42.660;23.262;2023-03-20T04:08:43;15.50;;;10.17;;
9461;SDS011;4769;42.660;23.262;2023-03-20T04:11:15;14.03;;;8.90;;
9461;SDS011;4769;42.660;23.262;2023-03-20T04:13:42;14.23;;;10.17;;
9461;SDS011;4769;42.660;23.262;2023-03-20T04:16:10;11.83;;;9.50;;
9461;SDS011;4769;42.660;23.262;2023-03-20T04:18:37;17.87;;;10.70;;
9461;SDS011;4769;42.660;23.262;2023-03-20T04:21:03;15.70;;;10.40;;
9461;SDS011;4769;42.660;23.262;2023-03-20T04:23:29;15.57;;;10.50;;
9461;SDS011;4769;42.660;23.262;2023-03-20T04:25:54;15.27;;;10.73;;
9461;SDS011;4769;42.660;23.262;2023-03-20T04:28:23;15.07;;;10.80;;
9461;SDS011;4769;42.660;23.262;2023-03-20T04:30:51;15.13;;;11.27;;
9461;SDS011;4769;42.660;23.262;2023-03-20T04:33:21;14.53;;;11.03;;
9461;SDS011;4769;42.660;23.262;2023-03-20T04:35:47;16.00;;;10.53;;
9461;SDS011;4769;42.660;23.262;2023-03-20T04:38:13;16.13;;;10.43;;
9461;SDS011;4769;42.660;23.262;2023-03-20T04:40:39;13.47;;;10.27;;
9461;SDS011;4769;42.660;23.262;2023-03-20T04:43:05;13.97;;;10.87;;
9461;SDS011;4769;42.660;23.262;2023-03-20T04:45:34;22.07;;;10.77;;
9461;SDS011;4769;42.660;23.262;2023-03-20T04:47:59;16.50;;;10.33;;
9461;SDS011;4769;42.660;23.262;2023-03-20T04:50:25;15.17;;;10.80;;
9461;SDS011;4769;42.660;23.262;2023-03-20T04:52:51;16.13;;;10.33;;
9461;SDS011;4769;42.660;23.262;2023-03-20T04:55:16;14.33;;;11.47;;
9461;SDS011;4769;42.660;23.262;2023-03-20T04:57:42;15.70;;;11.97;;
9461;SDS011;4769;42.660;23.262;2023-03-20T05:00:11;17.43;;;12.97;;
9461;SDS011;4769;42.660;23.262;2023-03-20T05:02:41;19.53;;;12.60;;
9461;SDS011;4769;42.660;23.262;2023-03-20T05:05:07;16.03;;;12.53;;
9461;SDS011;4769;42.660;23.262;2023-03-20T05:07:33;17.07;;;12.87;;
9461;SDS011;4769;42.660;23.262;2023-03-20T05:09:59;19.97;;;12.73;;
9461;SDS011;4769;42.660;23.262;2023-03-20T05:12:25;16.13;;;11.87;;
9461;SDS011;4769;42.660;23.262;2023-03-20T05:14:51;16.50;;;11.80;;
9461;SDS011;4769;42.660;23.262;2023-03-20T05:17:17;22.00;;;11.70;;
9461;SDS011;4769;42.660;23.262;2023-03-20T05:19:45;15.97;;;12.13;;
9461;SDS011;4769;42.660;23.262;2023-03-20T05:22:11;15.90;;;12.53;;
9461;SDS011;4769;42.660;23.262;2023-03-20T05:24:37;25.37;;;13.27;;
9461;SDS011;4769;42.660;23.262;2023-03-20T05:27:02;18.47;;;12.90;;
9461;SDS011;4769;42.660;23.262;2023-03-20T05:29:28;20.47;;;12.67;;
9461;SDS011;4769;42.660;23.262;2023-03-20T05:31:54;17.47;;;11.93;;
9461;SDS011;4769;42.660;23.262;2023-03-20T05:34:20;15.23;;;10.80;;
9461;SDS011;4769;42.660;23.262;2023-03-20T05:36:50;17.27;;;11.77;;
9461;SDS011;4769;42.660;23.262;2023-03-20T05:39:18;16.80;;;12.80;;
9461;SDS011;4769;42.660;23.262;2023-03-20T05:41:45;28.67;;;13.33;;
9461;SDS011;4769;42.660;23.262;2023-03-20T05:44:14;23.60;;;12.87;;
9461;SDS011;4769;42.660;23.262;2023-03-20T05:46:40;19.60;;;12.10;;
9461;SDS011;4769;42.660;23.262;2023-03-20T05:49:05;20.30;;;12.17;;
9461;SDS011;4769;42.660;23.262;2023-03-20T05:51:31;20.60;;;11.47;;
9461;SDS011;4769;42.660;23.262;2023-03-20T05:54:00;17.53;;;12.03;;
9461;SDS011;4769;42.660;23.262;2023-03-20T05:56:25;25.87;;;13.60;;
9461;SDS011;4769;42.660;23.262;2023-03-20T05:58:51;28.73;;;13.20;;
9461;SDS011;4769;42.660;23.262;2023-03-20T06:01:17;23.20;;;14.63;;
9461;SDS011;4769;42.660;23.262;2023-03-20T06:03:46;28.47;;;15.43;;
9461;SDS011;4769;42.660;23.262;2023-03-20T06:06:12;31.37;;;16.03;;
9461;SDS011;4769;42.660;23.262;2023-03-20T06:08:37;30.00;;;15.87;;
9461;SDS011;4769;42.660;23.262;2023-03-20T06:11:06;31.20;;;15.47;;
9461;SDS011;4769;42.660;23.262;2023-03-20T06:13:32;24.27;;;14.47;;
9461;SDS011;4769;42.660;23.262;2023-03-20T06:15:58;38.67;;;15.40;;
9461;SDS011;4769;42.660;23.262;2023-03-20T06:18:24;27.27;;;16.73;;
9461;SDS011;4769;42.660;23.262;2023-03-20T06:20:50;49.53;;;22.67;;
9461;SDS011;4769;42.660;23.262;2023-03-20T06:23:16;35.93;;;19.47;;
9461;SDS011;4769;42.660;23.262;2023-03-20T06:25:42;31.90;;;22.80;;
9461;SDS011;4769;42.660;23.262;2023-03-20T06:28:10;31.50;;;21.60;;
9461;SDS011;4769;42.660;23.262;2023-03-20T06:30:36;36.30;;;19.33;;
9461;SDS011;4769;42.660;23.262;2023-03-20T06:33:02;28.90;;;17.70;;
9461;SDS011;4769;42.660;23.262;2023-03-20T06:35:30;32.83;;;17.20;;
9461;SDS011;4769;42.660;23.262;2023-03-20T06:37:55;34.60;;;18.00;;
9461;SDS011;4769;42.660;23.262;2023-03-20T06:40:21;27.43;;;17.83;;
9461;SDS011;4769;42.660;23.262;2023-03-20T06:42:47;34.57;;;18.63;;
9461;SDS011;4769;42.660;23.262;2023-03-20T06:45:16;30.97;;;19.90;;
9461;SDS011;4769;42.660;23.262;2023-03-20T06:47:41;31.67;;;19.50;;
9461;SDS011;4769;42.660;23.262;2023-03-20T06:50:08;26.10;;;18.73;;
9461;SDS011;4769;42.660;23.262;2023-03-20T06:52:34;28.07;;;18.80;;
9461;SDS011;4769;42.660;23.262;2023-03-20T06:55:00;34.80;;;20.27;;
9461;SDS011;4769;42.660;23.262;2023-03-20T06:57:26;38.10;;;22.57;;
9461;SDS011;4769;42.660;23.262;2023-03-20T06:59:52;38.13;;;22.17;;
9461;SDS011;4769;42.660;23.262;2023-03-20T07:02:20;35.43;;;20.43;;
9461;SDS011;4769;42.660;23.262;2023-03-20T07:04:46;38.97;;;19.60;;
9461;SDS011;4769;42.660;23.262;2023-03-20T07:07:12;38.30;;;23.13;;
9461;SDS011;4769;42.660;23.262;2023-03-20T07:09:38;33.17;;;18.43;;
9461;SDS011;4769;42.660;23.262;2023-03-20T07:12:03;24.47;;;16.60;;
9461;SDS011;4769;42.660;23.262;2023-03-20T07:14:29;23.33;;;16.10;;
9461;SDS011;4769;42.660;23.262;2023-03-20T07:16:55;23.10;;;15.53;;
9461;SDS011;4769;42.660;23.262;2023-03-20T07:19:24;22.57;;;15.60;;
9461;SDS011;4769;42.660;23.262;2023-03-20T07:21:50;24.73;;;15.03;;
9461;SDS011;4769;42.660;23.262;2023-03-20T07:24:22;23.17;;;15.45;;
9461;SDS011;4769;42.660;23.262;2023-03-20T07:26:47;20.35;;;14.65;;
9461;SDS011;4769;42.660;23.262;2023-03-20T07:29:13;23.70;;;14.15;;
9461;SDS011;4769;42.660;23.262;2023-03-20T07:31:39;26.58;;;14.60;;
9461;SDS011;4769;42.660;23.262;2023-03-20T07:34:04;19.55;;;12.98;;
9461;SDS011;4769;42.660;23.262;2023-03-20T07:36:33;19.10;;;12.60;;
9461;SDS011;4769;42.660;23.262;2023-03-20T07:38:59;21.00;;;12.70;;
9461;SDS011;4769;42.660;23.262;2023-03-20T07:41:24;22.55;;;13.15;;
9461;SDS011;4769;42.660;23.262;2023-03-20T07:43:50;18.83;;;12.98;;
9461;SDS011;4769;42.660;23.262;2023-03-20T07:46:16;19.38;;;12.27;;
9461;SDS011;4769;42.660;23.262;2023-03-20T07:48:41;20.45;;;13.05;;
9461;SDS011;4769;42.660;23.262;2023-03-20T07:51:07;17.50;;;13.13;;
9461;SDS011;4769;42.660;23.262;2023-03-20T07:53:35;19.35;;;13.07;;
9461;SDS011;4769;42.660;23.262;2023-03-20T07:56:01;20.33;;;13.52;;
9461;SDS011;4769;42.660;23.262;2023-03-20T07:58:27;22.02;;;13.40;;
9461;SDS011;4769;42.660;23.262;2023-03-20T08:00:55;25.40;;;14.77;;
9461;SDS011;4769;42.660;23.262;2023-03-20T08:03:21;16.65;;;13.45;;
9461;SDS011;4769;42.660;23.262;2023-03-20T08:05:47;24.15;;;15.40;;
9461;SDS011;4769;42.660;23.262;2023-03-20T08:08:13;24.23;;;16.80;;
9461;SDS011;4769;42.660;23.262;2023-03-20T08:10:41;19.90;;;15.27;;
9461;SDS011;4769;42.660;23.262;2023-03-20T08:13:07;22.38;;;14.27;;
9461;SDS011;4769;42.660;23.262;2023-03-20T08:15:32;21.27;;;14.25;;
9461;SDS011;4769;42.660;23.262;2023-03-20T08:17:58;23.40;;;15.52;;
9461;SDS011;4769;42.660;23.262;2023-03-20T08:20:24;17.60;;;14.85;;
9461;SDS011;4769;42.660;23.262;2023-03-20T08:22:50;23.60;;;14.45;;
9461;SDS011;4769;42.660;23.262;2023-03-20T08:25:15;21.67;;;14.70;;
9461;SDS011;4769;42.660;23.262;2023-03-20T08:27:44;19.65;;;14.75;;
9461;SDS011;4769;42.660;23.262;2023-03-20T08:30:10;20.42;;;14.27;;
9461;SDS011;4769;42.660;23.262;2023-03-20T08:32:36;23.70;;;14.15;;
9461;SDS011;4769;42.660;23.262;2023-03-20T08:35:02;22.00;;;15.05;;
9461;SDS011;4769;42.660;23.262;2023-03-20T08:37:29;23.10;;;15.50;;
9461;SDS011;4769;42.660;23.262;2023-03-20T08:39:55;21.83;;;15.52;;
9461;SDS011;4769;42.660;23.262;2023-03-20T08:42:21;23.00;;;15.63;;
9461;SDS011;4769;42.660;23.262;2023-03-20T08:44:49;25.98;;;16.83;;
9461;SDS011;4769;42.660;23.262;2023-03-20T08:47:15;20.88;;;15.35;;
9461;SDS011;4769;42.660;23.262;2023-03-20T08:49:41;22.23;;;16.25;;
9461;SDS011;4769;42.660;23.262;2023-03-20T08:52:07;23.80;;;14.98;;
9461;SDS011;4769;42.660;23.262;2023-03-20T08:54:32;21.83;;;15.35;;
9461;SDS011;4769;42.660;23.262;2023-03-20T08:56:58;22.13;;;15.30;;
9461;SDS011;4769;42.660;23.262;2023-03-20T08:59:24;22.42;;;15.45;;
9461;SDS011;4769;42.660;23.262;2023-03-20T09:01:53;26.42;;;15.15;;
9461;SDS011;4769;42.660;23.262;2023-03-20T09:04:19;20.88;;;15.35;;
9461;SDS011;4769;42.660;23.262;2023-03-20T09:06:44;20.05;;;14.45;;
9461;SDS011;4769;42.660;23.262;2023-03-20T09:09:10;23.92;;;15.35;;
9461;SDS011;4769;42.660;23.262;2023-03-20T09:11:36;19.65;;;14.30;;
9461;SDS011;4769;42.660;23.262;2023-03-20T09:14:02;19.88;;;14.90;;
9461;SDS011;4769;42.660;23.262;2023-03-20T09:16:28;19.55;;;14.00;;
9461;SDS011;4769;42.660;23.262;2023-03-20T09:18:57;17.52;;;13.68;;
9461;SDS011;4769;42.660;23.262;2023-03-20T09:21:25;18.13;;;14.10;;
9461;SDS011;4769;42.660;23.262;2023-03-20T09:23:54;18.60;;;13.55;;
9461;SDS011;4769;42.660;23.262;2023-03-20T09:26:23;17.52;;;13.25;;
9461;SDS011;4769;42.660;23.262;2023-03-20T09:28:49;17.67;;;13.73;;
9461;SDS011;4769;42.660;23.262;2023-03-20T09:31:15;16.38;;;13.93;;
9461;SDS011;4769;42.660;23.262;2023-03-20T09:33:40;20.80;;;13.82;;
9461;SDS011;4769;42.660;23.262;2023-03-20T09:36:09;29.77;;;16.17;;
9461;SDS011;4769;42.660;23.262;2023-03-20T09:38:35;18.70;;;12.00;;
9461;SDS011;4769;42.660;23.262;2023-03-20T09:41:02;20.40;;;12.73;;
9461;SDS011;4769;42.660;23.262;2023-03-20T09:43:33;21.23;;;13.25;;
9461;SDS011;4769;42.660;23.262;2023-03-20T09:46:21;20.30;;;13.30;;
9461;SDS011;4769;42.660;23.262;2023-03-20T09:49:06;18.58;;;13.57;;
9461;SDS011;4769;42.660;23.262;2023-03-20T09:51:40;18.40;;;13.75;;
9461;SDS011;4769;42.660;23.262;2023-03-20T09:54:12;18.80;;;14.43;;
9461;SDS011;4769;42.660;23.262;2023-03-20T09:56:45;20.00;;;14.27;;
9461;SDS011;4769;42.660;23.262;2023-03-20T09:59:13;23.13;;;13.77;;
9461;SDS011;4769;42.660;23.262;2023-03-20T10:01:42;18.83;;;14.30;;
9461;SDS011;4769;42.660;23.262;2023-03-20T10:04:12;25.65;;;15.02;;
9461;SDS011;4769;42.660;23.262;2023-03-20T10:06:41;22.35;;;15.63;;
9461;SDS011;4769;42.660;23.262;2023-03-20T10:09:11;20.00;;;15.88;;
9461;SDS011;4769;42.660;23.262;2023-03-20T10:11:51;23.38;;;15.75;;
9461;SDS011;4769;42.660;23.262;2023-03-20T10:14:37;24.95;;;14.98;;
9461;SDS011;4769;42.660;23.262;2023-03-20T10:17:24;25.95;;;16.77;;
9461;SDS011;4769;42.660;23.262;2023-03-20T10:20:03;24.75;;;15.82;;
9461;SDS011;4769;42.660;23.262;2023-03-20T10:25:18;19.58;;;15.50;;
9461;SDS011;4769;42.660;23.262;2023-03-20T10:27:48;19.35;;;14.98;;
9461;SDS011;4769;42.660;23.262;2023-03-20T10:30:23;21.25;;;15.43;;
9461;SDS011;4769;42.660;23.262;2023-03-20T10:32:59;22.98;;;15.57;;
9461;SDS011;4769;42.660;23.262;2023-03-20T10:35:36;24.67;;;15.82;;
9461;SDS011;4769;42.660;23.262;2023-03-20T10:38:12;17.05;;;15.20;;
9461;SDS011;4769;42.660;23.262;2023-03-20T10:40:50;24.17;;;17.30;;
9461;SDS011;4769;42.660;23.262;2023-03-20T10:43:20;21.13;;;17.50;;
9461;SDS011;4769;42.660;23.262;2023-03-20T10:45:50;19.70;;;16.30;;
9461;SDS011;4769;42.660;23.262;2023-03-20T10:48:20;22.27;;;17.65;;
9461;SDS011;4769;42.660;23.262;2023-03-20T10:50:51;18.25;;;15.02;;
9461;SDS011;4769;42.660;23.262;2023-03-20T10:53:27;31.48;;;21.48;;
9461;SDS011;4769;42.660;23.262;2023-03-20T10:55:59;24.88;;;16.35;;
9461;SDS011;4769;42.660;23.262;2023-03-20T10:58:32;19.98;;;15.40;;
9461;SDS011;4769;42.660;23.262;2023-03-20T11:01:01;21.90;;;16.02;;
9461;SDS011;4769;42.660;23.262;2023-03-20T11:03:28;17.50;;;14.95;;
9461;SDS011;4769;42.660;23.262;2023-03-20T11:05:56;19.33;;;15.35;;
9461;SDS011;4769;42.660;23.262;2023-03-20T11:08:28;21.23;;;14.98;;
9461;SDS011;4769;42.660;23.262;2023-03-20T11:11:02;20.17;;;15.57;;
9461;SDS011;4769;42.660;23.262;2023-03-20T11:13:30;22.83;;;15.73;;
9461;SDS011;4769;42.660;23.262;2023-03-20T11:16:06;21.63;;;16.17;;
9461;SDS011;4769;42.660;23.262;2023-03-20T11:18:35;19.50;;;14.60;;
9461;SDS011;4769;42.660;23.262;2023-03-20T11:21:01;19.55;;;15.70;;
9461;SDS011;4769;42.660;23.262;2023-03-20T11:23:29;23.15;;;15.82;;
9461;SDS011;4769;42.660;23.262;2023-03-20T11:25:58;25.13;;;16.05;;
9461;SDS011;4769;42.660;23.262;2023-03-20T11:28:30;18.50;;;14.75;;
9461;SDS011;4769;42.660;23.262;2023-03-20T11:31:01;21.42;;;14.88;;
9461;SDS011;4769;42.660;23.262;2023-03-20T11:33:29;18.27;;;13.85;;
9461;SDS011;4769;42.660;23.262;2023-03-20T11:35:57;19.02;;;13.88;;
9461;SDS011;4769;42.660;23.262;2023-03-20T11:38:23;19.35;;;13.98;;
9461;SDS011;4769;42.660;23.262;2023-03-20T11:40:49;20.23;;;13.18;;
9461;SDS011;4769;42.660;23.262;2023-03-20T11:43:20;19.17;;;14.87;;
9461;SDS011;4769;42.660;23.262;2023-03-20T11:45:48;18.35;;;14.23;;
9461;SDS011;4769;42.660;23.262;2023-03-20T11:48:18;23.65;;;14.85;;
9461;SDS011;4769;42.660;23.262;2023-03-20T11:50:46;24.27;;;14.50;;
9461;SDS011;4769;42.660;23.262;2023-03-20T11:53:19;20.38;;;13.52;;
9461;SDS011;4769;42.660;23.262;2023-03-20T11:56:02;20.25;;;13.30;;
9461;SDS011;4769;42.660;23.262;2023-03-20T11:58:33;21.05;;;18.60;;
9461;SDS011;4769;42.660;23.262;2023-03-20T12:01:02;17.85;;;14.10;;
9461;SDS011;4769;42.660;23.262;2023-03-20T12:03:39;20.35;;;17.58;;
9461;SDS011;4769;42.660;23.262;2023-03-20T12:06:13;16.65;;;13.80;;
9461;SDS011;4769;42.660;23.262;2023-03-20T12:08:42;20.83;;;13.65;;
9461;SDS011;4769;42.660;23.262;2023-03-20T12:11:18;21.17;;;12.68;;
9461;SDS011;4769;42.660;23.262;2023-03-20T12:13:58;16.75;;;12.80;;
9461;SDS011;4769;42.660;23.262;2023-03-20T12:16:27;19.98;;;13.10;;
9461;SDS011;4769;42.660;23.262;2023-03-20T12:18:53;18.33;;;12.45;;
9461;SDS011;4769;42.660;23.262;2023-03-20T12:21:25;16.55;;;12.35;;
9461;SDS011;4769;42.660;23.262;2023-03-20T12:23:56;19.10;;;12.63;;
9461;SDS011;4769;42.660;23.262;2023-03-20T12:26:26;17.75;;;12.05;;
9461;SDS011;4769;42.660;23.262;2023-03-20T12:29:03;18.92;;;11.35;;
9461;SDS011;4769;42.660;23.262;2023-03-20T12:31:35;17.65;;;10.75;;
9461;SDS011;4769;42.660;23.262;2023-03-20T12:34:09;21.23;;;11.00;;
9461;SDS011;4769;42.660;23.262;2023-03-20T12:36:41;17.00;;;10.90;;
9461;SDS011;4769;42.660;23.262;2023-03-20T12:39:10;17.20;;;10.90;;
9461;SDS011;4769;42.660;23.262;2023-03-20T12:41:39;15.57;;;9.75;;
9461;SDS011;4769;42.660;23.262;2023-03-20T12:44:19;16.50;;;9.50;;
9461;SDS011;4769;42.660;23.262;2023-03-20T12:46:53;10.90;;;8.60;;
9461;SDS011;4769;42.660;23.262;2023-03-20T12:49:28;14.50;;;8.85;;
9461;SDS011;4769;42.660;23.262;2023-03-20T12:52:09;13.95;;;8.98;;
9461;SDS011;4769;42.660;23.262;2023-03-20T12:54:44;14.05;;;8.60;;
9461;SDS011;4769;42.660;23.262;2023-03-20T12:57:27;10.00;;;7.80;;
9461;SDS011;4769;42.660;23.262;2023-03-20T13:00:08;16.83;;;8.48;;
9461;SDS011;4769;42.660;23.262;2023-03-20T13:02:45;8.90;;;6.65;;
9461;SDS011;4769;42.660;23.262;2023-03-20T13:05:26;12.13;;;7.05;;
9461;SDS011;4769;42.660;23.262;2023-03-20T13:08:11;11.70;;;6.63;;
9461;SDS011;4769;42.660;23.262;2023-03-20T13:10:52;15.45;;;7.22;;
9461;SDS011;4769;42.660;23.262;2023-03-20T13:13:25;10.43;;;6.55;;
9461;SDS011;4769;42.660;23.262;2023-03-20T13:18:53;13.32;;;5.82;;
9461;SDS011;4769;42.660;23.262;2023-03-20T13:21:26;6.75;;;5.35;;
9461;SDS011;4769;42.660;23.262;2023-03-20T13:23:57;10.10;;;6.13;;
9461;SDS011;4769;42.660;23.262;2023-03-20T13:26:34;9.10;;;5.63;;
9461;SDS011;4769;42.660;23.262;2023-03-20T13:29:07;9.93;;;5.75;;
9461;SDS011;4769;42.660;23.262;2023-03-20T13:31:45;7.35;;;4.93;;
9461;SDS011;4769;42.660;23.262;2023-03-20T13:34:27;6.47;;;5.30;;
9461;SDS011;4769;42.660;23.262;2023-03-20T13:37:06;6.53;;;4.88;;
9461;SDS011;4769;42.660;23.262;2023-03-20T13:39:37;7.63;;;5.32;;
9461;SDS011;4769;42.660;23.262;2023-03-20T13:42:10;8.60;;;5.40;;
9461;SDS011;4769;42.660;23.262;2023-03-20T13:44:38;16.13;;;5.10;;
9461;SDS011;4769;42.660;23.262;2023-03-20T13:58:50;6.80;;;4.13;;
9461;SDS011;4769;42.660;23.262;2023-03-20T14:01:28;8.57;;;4.47;;
9461;SDS011;4769;42.660;23.262;2023-03-20T14:04:03;4.38;;;3.90;;
9461;SDS011;4769;42.660;23.262;2023-03-20T14:06:48;6.93;;;4.30;;
9461;SDS011;4769;42.660;23.262;2023-03-20T14:09:23;8.48;;;4.35;;
9461;SDS011;4769;42.660;23.262;2023-03-20T14:11:55;5.55;;;4.03;;
9461;SDS011;4769;42.660;23.262;2023-03-20T14:14:26;5.30;;;3.92;;
9461;SDS011;4769;42.660;23.262;2023-03-20T14:17:07;9.50;;;4.63;;
9461;SDS011;4769;42.660;23.262;2023-03-20T14:19:39;5.78;;;3.83;;
9461;SDS011;4769;42.660;23.262;2023-03-20T14:22:06;5.90;;;3.97;;
9461;SDS011;4769;42.660;23.262;2023-03-20T14:24:40;11.10;;;4.78;;
9461;SDS011;4769;42.660;23.262;2023-03-20T14:27:19;9.50;;;4.88;;
9461;SDS011;4769;42.660;23.262;2023-03-20T14:29:49;7.22;;;4.63;;
9461;SDS011;4769;42.660;23.262;2023-03-20T14:32:22;6.65;;;4.28;;
9461;SDS011;4769;42.660;23.262;2023-03-20T14:34:58;8.52;;;4.60;;
9461;SDS011;4769;42.660;23.262;2023-03-20T14:37:44;7.13;;;4.43;;
9461;SDS011;4769;42.660;23.262;2023-03-20T14:40:27;7.10;;;4.88;;
9461;SDS011;4769;42.660;23.262;2023-03-20T14:54:33;14.30;;;4.78;;
9461;SDS011;4769;42.660;23.262;2023-03-20T14:57:07;14.95;;;5.45;;
9461;SDS011;4769;42.660;23.262;2023-03-20T14:59:34;13.20;;;5.82;;
9461;SDS011;4769;42.660;23.262;2023-03-20T15:02:00;12.20;;;6.28;;
9461;SDS011;4769;42.660;23.262;2023-03-20T15:04:28;13.10;;;6.90;;
9461;SDS011;4769;42.660;23.262;2023-03-20T15:07:00;14.98;;;7.10;;
9461;SDS011;4769;42.660;23.262;2023-03-20T15:09:29;7.72;;;5.70;;
9461;SDS011;4769;42.660;23.262;2023-03-20T15:11:56;9.50;;;5.70;;
9461;SDS011;4769;42.660;23.262;2023-03-20T15:14:24;10.52;;;5.97;;
9461;SDS011;4769;42.660;23.262;2023-03-20T15:16:56;9.75;;;7.30;;
9461;SDS011;4769;42.660;23.262;2023-03-20T15:19:22;12.52;;;8.63;;
9461;SDS011;4769;42.660;23.262;2023-03-20T15:21:48;14.40;;;7.10;;
9461;SDS011;4769;42.660;23.262;2023-03-20T15:24:19;15.85;;;6.72;;
9461;SDS011;4769;42.660;23.262;2023-03-20T15:26:52;19.52;;;6.88;;
9461;SDS011;4769;42.660;23.262;2023-03-20T15:29:20;12.25;;;5.97;;
9461;SDS011;4769;42.660;23.262;2023-03-20T15:31:49;12.98;;;5.72;;